logo dgac
Domingo 21 de Abril del 2024
Buscar por aerodromo o helipuerto
Ingrese nombre de aeródromo, localidad o designador OACI:
TAF: TAF SCTE 210409Z 2106/2206 17010KT CAVOK TN05/2106Z TX12/2118Z BECMG 2202/2204 6000 SHRA SCT025 BKN050
TAF del 21/04/2024 a las 04:09 UTC
Para mayor información visite www.meteochile.gob.cl
Período de validez: desde el 21 a las 06:00 UTC hasta el 22 a las 06:00 UTC
Viento: dirección 170 grados, velocidad 10 nudos
Visibilidad: 10 km o más,
    sin nubes bajo los 5.000 pies o bajo del MSA (Mínimo de Seguridad del Aeródromo),
    sin cumulonimbus, y sin fenómenos de tiempo significativo en el aeródromo o alrededores
Temperatura mínima: 5ºC el 21 a las 06:00 UTC
Temperatura máxima: 12ºC el 21 a las 18:00 UTC
Se espera un cambio entre las 02:00 UTC del 22 y las 04:00 UTC del 22, :
Visibilidad: 6000 metros
ChubascosLluvia
Nubes: Nubosidad parcial a 2500 pies sobre el nivel del aeródromo
Nubes: Nublado a 5000 pies sobre el nivel del aeródromo